sensor_id;sensor_type;location;lat;lon;timestamp;P1;durP1;ratioP1;P2;durP2;ratioP2
75696;SDS011;64312;44.738;20.612;2022-10-23T00:01:35;3.67;;;1.80;;
75696;SDS011;64312;44.738;20.612;2022-10-23T00:04:22;3.40;;;1.60;;
75696;SDS011;64312;44.738;20.612;2022-10-23T00:06:50;3.40;;;2.17;;
75696;SDS011;64312;44.738;20.612;2022-10-23T00:09:17;3.45;;;2.42;;
75696;SDS011;64312;44.738;20.612;2022-10-23T00:11:46;2.17;;;1.60;;
75696;SDS011;64312;44.738;20.612;2022-10-23T00:14:13;2.35;;;1.48;;
75696;SDS011;64312;44.738;20.612;2022-10-23T00:16:40;2.70;;;1.75;;
75696;SDS011;64312;44.738;20.612;2022-10-23T00:19:05;4.07;;;2.40;;
75696;SDS011;64312;44.738;20.612;2022-10-23T00:21:32;4.57;;;3.10;;
75696;SDS011;64312;44.738;20.612;2022-10-23T00:23:57;4.00;;;2.35;;
75696;SDS011;64312;44.738;20.612;2022-10-23T00:26:23;5.85;;;2.90;;
75696;SDS011;64312;44.738;20.612;2022-10-23T00:28:50;5.55;;;3.67;;
75696;SDS011;64312;44.738;20.612;2022-10-23T00:31:18;4.80;;;3.63;;
75696;SDS011;64312;44.738;20.612;2022-10-23T00:33:45;6.38;;;3.88;;
75696;SDS011;64312;44.738;20.612;2022-10-23T00:36:13;6.53;;;4.78;;
75696;SDS011;64312;44.738;20.612;2022-10-23T00:38:42;5.75;;;4.30;;
75696;SDS011;64312;44.738;20.612;2022-10-23T00:41:08;5.85;;;4.13;;
75696;SDS011;64312;44.738;20.612;2022-10-23T00:46:30;6.07;;;4.72;;
75696;SDS011;64312;44.738;20.612;2022-10-23T00:48:57;8.98;;;5.35;;
75696;SDS011;64312;44.738;20.612;2022-10-23T00:51:24;7.93;;;4.78;;
75696;SDS011;64312;44.738;20.612;2022-10-23T00:53:51;6.68;;;4.22;;
75696;SDS011;64312;44.738;20.612;2022-10-23T00:56:21;6.57;;;4.00;;
75696;SDS011;64312;44.738;20.612;2022-10-23T00:58:46;5.55;;;4.13;;
75696;SDS011;64312;44.738;20.612;2022-10-23T01:01:14;5.70;;;4.43;;
75696;SDS011;64312;44.738;20.612;2022-10-23T01:03:42;5.57;;;3.65;;
75696;SDS011;64312;44.738;20.612;2022-10-23T01:09:12;5.82;;;4.30;;
75696;SDS011;64312;44.738;20.612;2022-10-23T01:11:46;4.95;;;4.20;;
75696;SDS011;64312;44.738;20.612;2022-10-23T01:17:19;6.20;;;3.75;;
75696;SDS011;64312;44.738;20.612;2022-10-23T01:32:15;3.45;;;2.28;;
75696;SDS011;64312;44.738;20.612;2022-10-23T01:35:02;4.38;;;2.92;;
75696;SDS011;64312;44.738;20.612;2022-10-23T01:37:40;3.28;;;2.05;;
75696;SDS011;64312;44.738;20.612;2022-10-23T01:40:23;5.50;;;2.60;;
75696;SDS011;64312;44.738;20.612;2022-10-23T01:42:57;5.47;;;2.92;;
75696;SDS011;64312;44.738;20.612;2022-10-23T01:45:31;4.85;;;3.05;;
75696;SDS011;64312;44.738;20.612;2022-10-23T01:48:03;4.50;;;2.72;;
75696;SDS011;64312;44.738;20.612;2022-10-23T01:50:34;3.92;;;2.70;;
75696;SDS011;64312;44.738;20.612;2022-10-23T01:53:03;4.38;;;3.10;;
75696;SDS011;64312;44.738;20.612;2022-10-23T01:55:29;3.88;;;2.55;;
75696;SDS011;64312;44.738;20.612;2022-10-23T01:57:59;3.63;;;2.30;;
75696;SDS011;64312;44.738;20.612;2022-10-23T02:00:35;2.75;;;1.90;;
75696;SDS011;64312;44.738;20.612;2022-10-23T02:03:06;1.88;;;1.50;;
75696;SDS011;64312;44.738;20.612;2022-10-23T02:05:33;1.92;;;1.48;;
75696;SDS011;64312;44.738;20.612;2022-10-23T02:08:01;2.30;;;1.45;;
75696;SDS011;64312;44.738;20.612;2022-10-23T02:10:37;1.45;;;1.08;;
75696;SDS011;64312;44.738;20.612;2022-10-23T02:13:15;1.73;;;0.70;;
75696;SDS011;64312;44.738;20.612;2022-10-23T02:16:32;3.45;;;1.70;;
75696;SDS011;64312;44.738;20.612;2022-10-23T02:19:30;3.67;;;2.40;;
75696;SDS011;64312;44.738;20.612;2022-10-23T02:21:55;2.60;;;1.52;;
75696;SDS011;64312;44.738;20.612;2022-10-23T02:24:26;2.22;;;1.08;;
75696;SDS011;64312;44.738;20.612;2022-10-23T02:27:00;2.00;;;1.35;;
75696;SDS011;64312;44.738;20.612;2022-10-23T02:32:10;1.50;;;1.00;;
75696;SDS011;64312;44.738;20.612;2022-10-23T02:34:39;2.50;;;1.25;;
75696;SDS011;64312;44.738;20.612;2022-10-23T02:37:08;1.98;;;1.10;;
75696;SDS011;64312;44.738;20.612;2022-10-23T02:39:34;1.20;;;0.90;;
75696;SDS011;64312;44.738;20.612;2022-10-23T02:45:03;1.67;;;1.08;;
75696;SDS011;64312;44.738;20.612;2022-10-23T02:52:58;1.77;;;1.20;;
75696;SDS011;64312;44.738;20.612;2022-10-23T02:58:34;1.13;;;1.00;;
75696;SDS011;64312;44.738;20.612;2022-10-23T03:01:09;2.10;;;0.93;;
75696;SDS011;64312;44.738;20.612;2022-10-23T03:03:39;1.45;;;1.20;;
75696;SDS011;64312;44.738;20.612;2022-10-23T03:06:09;1.40;;;1.05;;
75696;SDS011;64312;44.738;20.612;2022-10-23T03:08:44;1.23;;;0.80;;
75696;SDS011;64312;44.738;20.612;2022-10-23T03:11:17;1.00;;;0.80;;
75696;SDS011;64312;44.738;20.612;2022-10-23T03:13:42;2.90;;;1.67;;
75696;SDS011;64312;44.738;20.612;2022-10-23T03:16:09;1.88;;;1.33;;
75696;SDS011;64312;44.738;20.612;2022-10-23T03:18:34;2.15;;;1.33;;
75696;SDS011;64312;44.738;20.612;2022-10-23T03:21:01;1.52;;;0.75;;
75696;SDS011;64312;44.738;20.612;2022-10-23T03:23:27;1.52;;;0.90;;
75696;SDS011;64312;44.738;20.612;2022-10-23T03:25:52;1.42;;;1.15;;
75696;SDS011;64312;44.738;20.612;2022-10-23T03:28:40;1.85;;;1.08;;
75696;SDS011;64312;44.738;20.612;2022-10-23T03:31:06;1.50;;;1.00;;
75696;SDS011;64312;44.738;20.612;2022-10-23T03:33:32;1.00;;;0.90;;
75696;SDS011;64312;44.738;20.612;2022-10-23T03:36:05;1.05;;;0.93;;
75696;SDS011;64312;44.738;20.612;2022-10-23T03:38:33;1.02;;;0.70;;
75696;SDS011;64312;44.738;20.612;2022-10-23T03:40:59;1.60;;;0.90;;
75696;SDS011;64312;44.738;20.612;2022-10-23T03:43:26;1.20;;;0.93;;
75696;SDS011;64312;44.738;20.612;2022-10-23T03:45:52;1.27;;;0.73;;
75696;SDS011;64312;44.738;20.612;2022-10-23T03:48:21;1.20;;;0.70;;
75696;SDS011;64312;44.738;20.612;2022-10-23T03:50:48;2.17;;;1.10;;
75696;SDS011;64312;44.738;20.612;2022-10-23T03:53:15;1.55;;;0.73;;
75696;SDS011;64312;44.738;20.612;2022-10-23T03:55:40;1.27;;;0.57;;
75696;SDS011;64312;44.738;20.612;2022-10-23T03:58:06;1.00;;;0.70;;
75696;SDS011;64312;44.738;20.612;2022-10-23T04:00:31;1.13;;;0.70;;
75696;SDS011;64312;44.738;20.612;2022-10-23T04:02:59;1.50;;;0.70;;
75696;SDS011;64312;44.738;20.612;2022-10-23T04:05:25;1.38;;;0.80;;
75696;SDS011;64312;44.738;20.612;2022-10-23T04:07:53;1.30;;;0.75;;
75696;SDS011;64312;44.738;20.612;2022-10-23T04:10:19;2.92;;;1.50;;
75696;SDS011;64312;44.738;20.612;2022-10-23T04:12:46;2.47;;;1.48;;
75696;SDS011;64312;44.738;20.612;2022-10-23T04:15:11;2.15;;;1.17;;
75696;SDS011;64312;44.738;20.612;2022-10-23T04:17:39;2.40;;;1.70;;
75696;SDS011;64312;44.738;20.612;2022-10-23T04:20:04;1.05;;;0.77;;
75696;SDS011;64312;44.738;20.612;2022-10-23T04:22:30;1.20;;;0.80;;
75696;SDS011;64312;44.738;20.612;2022-10-23T04:24:55;1.20;;;0.70;;
75696;SDS011;64312;44.738;20.612;2022-10-23T04:27:21;1.95;;;0.98;;
75696;SDS011;64312;44.738;20.612;2022-10-23T04:29:46;1.75;;;1.25;;
75696;SDS011;64312;44.738;20.612;2022-10-23T04:32:13;1.42;;;0.90;;
75696;SDS011;64312;44.738;20.612;2022-10-23T04:34:42;1.38;;;1.10;;
75696;SDS011;64312;44.738;20.612;2022-10-23T04:37:08;1.02;;;0.63;;
75696;SDS011;64312;44.738;20.612;2022-10-23T04:39:33;1.17;;;0.80;;
75696;SDS011;64312;44.738;20.612;2022-10-23T04:41:59;0.88;;;0.80;;
75696;SDS011;64312;44.738;20.612;2022-10-23T04:44:25;1.73;;;0.90;;
75696;SDS011;64312;44.738;20.612;2022-10-23T04:46:50;1.90;;;0.80;;
75696;SDS011;64312;44.738;20.612;2022-10-23T04:49:16;1.65;;;1.17;;
75696;SDS011;64312;44.738;20.612;2022-10-23T04:52:08;1.95;;;0.93;;
75696;SDS011;64312;44.738;20.612;2022-10-23T04:55:09;1.83;;;0.85;;
75696;SDS011;64312;44.738;20.612;2022-10-23T04:57:42;1.52;;;0.70;;
75696;SDS011;64312;44.738;20.612;2022-10-23T05:00:11;1.58;;;0.95;;
75696;SDS011;64312;44.738;20.612;2022-10-23T05:02:47;1.40;;;1.00;;
75696;SDS011;64312;44.738;20.612;2022-10-23T05:05:14;2.15;;;1.20;;
75696;SDS011;64312;44.738;20.612;2022-10-23T05:08:01;1.67;;;1.17;;
75696;SDS011;64312;44.738;20.612;2022-10-23T05:10:50;1.25;;;0.80;;
75696;SDS011;64312;44.738;20.612;2022-10-23T05:13:16;1.17;;;1.00;;
75696;SDS011;64312;44.738;20.612;2022-10-23T05:15:44;2.00;;;0.93;;
75696;SDS011;64312;44.738;20.612;2022-10-23T05:20:48;1.25;;;0.65;;
75696;SDS011;64312;44.738;20.612;2022-10-23T05:23:16;2.03;;;1.15;;
75696;SDS011;64312;44.738;20.612;2022-10-23T05:25:52;1.52;;;0.93;;
75696;SDS011;64312;44.738;20.612;2022-10-23T05:28:18;1.80;;;0.85;;
75696;SDS011;64312;44.738;20.612;2022-10-23T05:30:44;1.40;;;1.10;;
75696;SDS011;64312;44.738;20.612;2022-10-23T05:33:10;1.17;;;0.90;;
75696;SDS011;64312;44.738;20.612;2022-10-23T05:35:39;1.27;;;0.80;;
75696;SDS011;64312;44.738;20.612;2022-10-23T05:38:07;1.55;;;0.80;;
75696;SDS011;64312;44.738;20.612;2022-10-23T05:40:33;1.70;;;0.90;;
75696;SDS011;64312;44.738;20.612;2022-10-23T05:43:04;0.98;;;0.60;;
75696;SDS011;64312;44.738;20.612;2022-10-23T05:45:41;1.10;;;0.90;;
75696;SDS011;64312;44.738;20.612;2022-10-23T05:48:31;1.40;;;0.73;;
75696;SDS011;64312;44.738;20.612;2022-10-23T05:51:08;1.60;;;0.90;;
75696;SDS011;64312;44.738;20.612;2022-10-23T05:53:45;1.83;;;1.10;;
75696;SDS011;64312;44.738;20.612;2022-10-23T05:56:21;1.38;;;0.82;;
75696;SDS011;64312;44.738;20.612;2022-10-23T05:59:06;1.88;;;1.17;;
75696;SDS011;64312;44.738;20.612;2022-10-23T06:01:48;1.58;;;1.10;;
75696;SDS011;64312;44.738;20.612;2022-10-23T06:04:19;2.25;;;1.15;;
75696;SDS011;64312;44.738;20.612;2022-10-23T06:07:14;1.27;;;0.80;;
75696;SDS011;64312;44.738;20.612;2022-10-23T06:09:42;1.17;;;0.70;;
75696;SDS011;64312;44.738;20.612;2022-10-23T06:12:08;1.30;;;0.95;;
75696;SDS011;64312;44.738;20.612;2022-10-23T06:14:34;1.33;;;0.80;;
75696;SDS011;64312;44.738;20.612;2022-10-23T06:17:00;1.80;;;0.93;;
75696;SDS011;64312;44.738;20.612;2022-10-23T06:19:26;1.98;;;0.88;;
75696;SDS011;64312;44.738;20.612;2022-10-23T06:21:56;1.92;;;1.20;;
75696;SDS011;64312;44.738;20.612;2022-10-23T06:24:32;1.60;;;0.90;;
75696;SDS011;64312;44.738;20.612;2022-10-23T06:27:01;1.65;;;0.93;;
75696;SDS011;64312;44.738;20.612;2022-10-23T06:29:38;2.13;;;1.13;;
75696;SDS011;64312;44.738;20.612;2022-10-23T06:32:06;1.67;;;0.80;;
75696;SDS011;64312;44.738;20.612;2022-10-23T06:34:32;1.88;;;1.10;;
75696;SDS011;64312;44.738;20.612;2022-10-23T06:36:59;2.58;;;1.15;;
75696;SDS011;64312;44.738;20.612;2022-10-23T06:39:33;1.90;;;0.90;;
75696;SDS011;64312;44.738;20.612;2022-10-23T06:42:19;0.95;;;0.70;;
75696;SDS011;64312;44.738;20.612;2022-10-23T06:44:54;1.20;;;0.80;;
75696;SDS011;64312;44.738;20.612;2022-10-23T06:47:48;2.17;;;1.30;;
75696;SDS011;64312;44.738;20.612;2022-10-23T06:50:35;1.25;;;0.93;;
75696;SDS011;64312;44.738;20.612;2022-10-23T06:53:05;1.73;;;0.93;;
75696;SDS011;64312;44.738;20.612;2022-10-23T06:55:33;1.40;;;1.08;;
75696;SDS011;64312;44.738;20.612;2022-10-23T06:57:58;2.28;;;1.35;;
75696;SDS011;64312;44.738;20.612;2022-10-23T07:00:24;2.17;;;1.30;;
75696;SDS011;64312;44.738;20.612;2022-10-23T07:02:52;2.25;;;1.50;;
75696;SDS011;64312;44.738;20.612;2022-10-23T07:05:17;4.47;;;3.20;;
75696;SDS011;64312;44.738;20.612;2022-10-23T07:07:44;6.63;;;4.03;;
75696;SDS011;64312;44.738;20.612;2022-10-23T07:10:13;5.70;;;3.00;;
75696;SDS011;64312;44.738;20.612;2022-10-23T07:12:41;14.93;;;10.77;;
75696;SDS011;64312;44.738;20.612;2022-10-23T07:15:26;15.60;;;14.20;;
75696;SDS011;64312;44.738;20.612;2022-10-23T07:17:52;11.63;;;10.43;;
75696;SDS011;64312;44.738;20.612;2022-10-23T07:20:20;8.45;;;6.93;;
75696;SDS011;64312;44.738;20.612;2022-10-23T07:22:50;6.07;;;5.47;;
75696;SDS011;64312;44.738;20.612;2022-10-23T07:25:25;4.22;;;3.42;;
75696;SDS011;64312;44.738;20.612;2022-10-23T07:27:51;8.15;;;4.28;;
75696;SDS011;64312;44.738;20.612;2022-10-23T07:30:19;6.30;;;3.60;;
75696;SDS011;64312;44.738;20.612;2022-10-23T07:32:49;4.25;;;2.70;;
75696;SDS011;64312;44.738;20.612;2022-10-23T07:35:39;4.30;;;2.65;;
75696;SDS011;64312;44.738;20.612;2022-10-23T07:38:11;6.78;;;3.70;;
75696;SDS011;64312;44.738;20.612;2022-10-23T07:40:42;5.00;;;3.67;;
75696;SDS011;64312;44.738;20.612;2022-10-23T07:43:10;6.38;;;4.10;;
75696;SDS011;64312;44.738;20.612;2022-10-23T07:45:35;5.15;;;3.20;;
75696;SDS011;64312;44.738;20.612;2022-10-23T07:48:09;5.18;;;2.85;;
75696;SDS011;64312;44.738;20.612;2022-10-23T07:51:01;4.43;;;2.63;;
75696;SDS011;64312;44.738;20.612;2022-10-23T07:53:34;4.43;;;2.40;;
75696;SDS011;64312;44.738;20.612;2022-10-23T07:56:14;3.42;;;2.53;;
75696;SDS011;64312;44.738;20.612;2022-10-23T07:59:00;4.63;;;2.70;;
75696;SDS011;64312;44.738;20.612;2022-10-23T08:01:30;3.58;;;2.65;;
75696;SDS011;64312;44.738;20.612;2022-10-23T08:03:59;4.07;;;2.95;;
75696;SDS011;64312;44.738;20.612;2022-10-23T08:06:26;3.92;;;2.53;;
75696;SDS011;64312;44.738;20.612;2022-10-23T08:08:52;4.28;;;2.33;;
75696;SDS011;64312;44.738;20.612;2022-10-23T08:11:18;3.92;;;3.08;;
75696;SDS011;64312;44.738;20.612;2022-10-23T08:13:49;2.45;;;1.70;;
75696;SDS011;64312;44.738;20.612;2022-10-23T08:19:09;2.78;;;1.70;;
75696;SDS011;64312;44.738;20.612;2022-10-23T08:21:37;1.95;;;1.50;;
75696;SDS011;64312;44.738;20.612;2022-10-23T08:24:03;2.70;;;1.70;;
75696;SDS011;64312;44.738;20.612;2022-10-23T08:26:31;2.17;;;1.50;;
75696;SDS011;64312;44.738;20.612;2022-10-23T08:28:57;1.60;;;1.40;;
75696;SDS011;64312;44.738;20.612;2022-10-23T08:31:24;1.38;;;1.00;;
75696;SDS011;64312;44.738;20.612;2022-10-23T08:34:08;2.08;;;1.50;;
75696;SDS011;64312;44.738;20.612;2022-10-23T08:36:35;1.88;;;1.40;;
75696;SDS011;64312;44.738;20.612;2022-10-23T08:39:05;1.65;;;1.30;;
75696;SDS011;64312;44.738;20.612;2022-10-23T08:41:33;3.47;;;2.70;;
75696;SDS011;64312;44.738;20.612;2022-10-23T08:46:59;2.55;;;1.88;;
75696;SDS011;64312;44.738;20.612;2022-10-23T08:57:48;1.23;;;1.08;;
75696;SDS011;64312;44.738;20.612;2022-10-23T09:00:19;1.77;;;1.33;;
75696;SDS011;64312;44.738;20.612;2022-10-23T09:02:46;2.60;;;1.80;;
75696;SDS011;64312;44.738;20.612;2022-10-23T09:05:15;1.00;;;0.85;;
75696;SDS011;64312;44.738;20.612;2022-10-23T09:12:56;1.75;;;1.10;;
75696;SDS011;64312;44.738;20.612;2022-10-23T09:15:44;1.60;;;1.02;;
75696;SDS011;64312;44.738;20.612;2022-10-23T09:18:13;2.75;;;1.17;;
75696;SDS011;64312;44.738;20.612;2022-10-23T09:20:42;2.53;;;1.40;;
75696;SDS011;64312;44.738;20.612;2022-10-23T09:23:16;1.70;;;1.23;;
75696;SDS011;64312;44.738;20.612;2022-10-23T09:25:45;3.80;;;2.47;;
75696;SDS011;64312;44.738;20.612;2022-10-23T09:28:22;3.17;;;2.00;;
75696;SDS011;64312;44.738;20.612;2022-10-23T09:30:50;2.97;;;1.92;;
75696;SDS011;64312;44.738;20.612;2022-10-23T09:35:52;3.65;;;2.13;;
75696;SDS011;64312;44.738;20.612;2022-10-23T09:40:54;3.28;;;2.10;;
75696;SDS011;64312;44.738;20.612;2022-10-23T09:43:20;2.65;;;1.80;;
75696;SDS011;64312;44.738;20.612;2022-10-23T09:45:59;1.95;;;1.35;;
75696;SDS011;64312;44.738;20.612;2022-10-23T09:48:28;2.63;;;2.00;;
75696;SDS011;64312;44.738;20.612;2022-10-23T09:50:55;3.15;;;2.00;;
75696;SDS011;64312;44.738;20.612;2022-10-23T09:53:30;2.58;;;1.70;;
75696;SDS011;64312;44.738;20.612;2022-10-23T09:56:46;2.53;;;1.80;;
75696;SDS011;64312;44.738;20.612;2022-10-23T10:02:16;3.03;;;1.60;;
75696;SDS011;64312;44.738;20.612;2022-10-23T10:04:37;2.10;;;1.75;;
75696;SDS011;64312;44.738;20.612;2022-10-23T10:07:12;1.40;;;1.30;;
75696;SDS011;64312;44.738;20.612;2022-10-23T10:09:43;2.78;;;1.98;;
75696;SDS011;64312;44.738;20.612;2022-10-23T10:33:48;7.50;;;3.47;;
75696;SDS011;64312;44.738;20.612;2022-10-23T10:36:40;4.00;;;3.28;;
75696;SDS011;64312;44.738;20.612;2022-10-23T10:39:18;4.93;;;3.90;;
75696;SDS011;64312;44.738;20.612;2022-10-23T10:47:18;7.68;;;4.05;;
75696;SDS011;64312;44.738;20.612;2022-10-23T10:49:53;7.25;;;3.78;;
75696;SDS011;64312;44.738;20.612;2022-10-23T10:55:37;6.22;;;4.28;;
75696;SDS011;64312;44.738;20.612;2022-10-23T11:00:54;5.63;;;4.30;;
75696;SDS011;64312;44.738;20.612;2022-10-23T11:05:51;7.65;;;4.30;;
75696;SDS011;64312;44.738;20.612;2022-10-23T11:08:22;4.95;;;3.50;;
75696;SDS011;64312;44.738;20.612;2022-10-23T11:11:10;4.93;;;3.08;;
75696;SDS011;64312;44.738;20.612;2022-10-23T11:13:42;6.00;;;3.60;;
75696;SDS011;64312;44.738;20.612;2022-10-23T11:22:02;4.72;;;2.85;;
75696;SDS011;64312;44.738;20.612;2022-10-23T11:24:43;4.95;;;2.72;;
75696;SDS011;64312;44.738;20.612;2022-10-23T11:30:12;4.45;;;2.92;;
75696;SDS011;64312;44.738;20.612;2022-10-23T11:38:07;3.17;;;2.20;;
75696;SDS011;64312;44.738;20.612;2022-10-23T11:40:33;2.92;;;2.13;;
75696;SDS011;64312;44.738;20.612;2022-10-23T11:42:59;2.90;;;1.67;;
75696;SDS011;64312;44.738;20.612;2022-10-23T11:53:24;4.03;;;2.33;;
75696;SDS011;64312;44.738;20.612;2022-10-23T11:55:57;3.38;;;2.53;;
75696;SDS011;64312;44.738;20.612;2022-10-23T11:58:56;2.63;;;2.10;;
75696;SDS011;64312;44.738;20.612;2022-10-23T12:04:03;3.78;;;2.20;;
75696;SDS011;64312;44.738;20.612;2022-10-23T12:06:52;2.85;;;1.80;;
75696;SDS011;64312;44.738;20.612;2022-10-23T12:09:29;3.28;;;2.40;;
75696;SDS011;64312;44.738;20.612;2022-10-23T12:19:50;3.67;;;2.50;;
75696;SDS011;64312;44.738;20.612;2022-10-23T12:22:18;3.78;;;2.15;;
75696;SDS011;64312;44.738;20.612;2022-10-23T12:38:25;2.78;;;2.10;;
75696;SDS011;64312;44.738;20.612;2022-10-23T12:43:39;2.85;;;1.63;;
75696;SDS011;64312;44.738;20.612;2022-10-23T12:49:14;4.75;;;3.40;;
75696;SDS011;64312;44.738;20.612;2022-10-23T12:51:42;3.45;;;2.78;;
75696;SDS011;64312;44.738;20.612;2022-10-23T12:54:18;3.58;;;2.30;;
75696;SDS011;64312;44.738;20.612;2022-10-23T12:56:46;2.60;;;1.98;;
75696;SDS011;64312;44.738;20.612;2022-10-23T12:59:13;2.35;;;1.48;;
75696;SDS011;64312;44.738;20.612;2022-10-23T13:01:48;1.88;;;1.50;;
75696;SDS011;64312;44.738;20.612;2022-10-23T13:04:33;1.95;;;1.48;;
75696;SDS011;64312;44.738;20.612;2022-10-23T13:07:03;1.85;;;1.30;;
75696;SDS011;64312;44.738;20.612;2022-10-23T13:09:34;2.50;;;1.58;;
75696;SDS011;64312;44.738;20.612;2022-10-23T13:12:18;2.67;;;1.40;;
75696;SDS011;64312;44.738;20.612;2022-10-23T13:14:56;2.63;;;1.58;;
75696;SDS011;64312;44.738;20.612;2022-10-23T13:22:51;3.40;;;1.65;;
75696;SDS011;64312;44.738;20.612;2022-10-23T13:25:38;4.63;;;2.53;;
75696;SDS011;64312;44.738;20.612;2022-10-23T13:30:31;3.65;;;2.13;;
75696;SDS011;64312;44.738;20.612;2022-10-23T13:32:58;2.63;;;1.95;;
75696;SDS011;64312;44.738;20.612;2022-10-23T13:35:24;3.85;;;2.47;;
75696;SDS011;64312;44.738;20.612;2022-10-23T13:37:49;3.33;;;2.38;;
75696;SDS011;64312;44.738;20.612;2022-10-23T13:40:25;4.03;;;2.90;;
75696;SDS011;64312;44.738;20.612;2022-10-23T13:42:52;2.80;;;1.98;;
75696;SDS011;64312;44.738;20.612;2022-10-23T13:45:21;3.38;;;2.33;;
75696;SDS011;64312;44.738;20.612;2022-10-23T13:47:49;6.10;;;3.85;;
75696;SDS011;64312;44.738;20.612;2022-10-23T13:50:14;4.05;;;2.75;;
75696;SDS011;64312;44.738;20.612;2022-10-23T13:52:41;5.22;;;2.90;;
75696;SDS011;64312;44.738;20.612;2022-10-23T13:55:20;3.17;;;2.17;;
75696;SDS011;64312;44.738;20.612;2022-10-23T13:57:48;2.78;;;2.13;;
75696;SDS011;64312;44.738;20.612;2022-10-23T14:00:14;2.53;;;2.05;;
75696;SDS011;64312;44.738;20.612;2022-10-23T14:02:40;3.30;;;2.30;;
75696;SDS011;64312;44.738;20.612;2022-10-23T14:05:06;4.50;;;2.15;;
75696;SDS011;64312;44.738;20.612;2022-10-23T14:07:32;4.18;;;2.28;;
75696;SDS011;64312;44.738;20.612;2022-10-23T14:09:57;3.70;;;2.50;;
75696;SDS011;64312;44.738;20.612;2022-10-23T14:12:23;3.97;;;2.60;;
75696;SDS011;64312;44.738;20.612;2022-10-23T14:14:49;3.70;;;2.40;;
75696;SDS011;64312;44.738;20.612;2022-10-23T14:17:16;3.95;;;2.70;;
75696;SDS011;64312;44.738;20.612;2022-10-23T14:19:42;4.70;;;2.92;;
75696;SDS011;64312;44.738;20.612;2022-10-23T14:22:08;3.10;;;2.15;;
75696;SDS011;64312;44.738;20.612;2022-10-23T14:24:34;3.30;;;2.20;;
75696;SDS011;64312;44.738;20.612;2022-10-23T14:27:00;4.53;;;3.22;;
75696;SDS011;64312;44.738;20.612;2022-10-23T14:29:25;5.60;;;2.83;;
75696;SDS011;64312;44.738;20.612;2022-10-23T14:31:52;12.60;;;7.47;;
75696;SDS011;64312;44.738;20.612;2022-10-23T14:34:17;11.90;;;7.05;;
75696;SDS011;64312;44.738;20.612;2022-10-23T14:36:43;7.82;;;5.10;;
75696;SDS011;64312;44.738;20.612;2022-10-23T14:39:08;6.63;;;3.70;;
75696;SDS011;64312;44.738;20.612;2022-10-23T14:41:34;6.47;;;3.50;;
75696;SDS011;64312;44.738;20.612;2022-10-23T14:44:00;6.38;;;4.07;;
75696;SDS011;64312;44.738;20.612;2022-10-23T14:46:25;6.50;;;3.25;;
75696;SDS011;64312;44.738;20.612;2022-10-23T14:48:52;4.10;;;3.20;;
75696;SDS011;64312;44.738;20.612;2022-10-23T14:51:20;6.05;;;3.47;;
75696;SDS011;64312;44.738;20.612;2022-10-23T14:53:48;6.38;;;3.80;;
75696;SDS011;64312;44.738;20.612;2022-10-23T14:56:14;7.10;;;3.70;;
75696;SDS011;64312;44.738;20.612;2022-10-23T14:58:40;7.82;;;4.13;;
75696;SDS011;64312;44.738;20.612;2022-10-23T15:01:07;5.90;;;3.47;;
75696;SDS011;64312;44.738;20.612;2022-10-23T15:03:34;6.35;;;3.40;;
75696;SDS011;64312;44.738;20.612;2022-10-23T15:06:00;4.72;;;2.60;;
75696;SDS011;64312;44.738;20.612;2022-10-23T15:08:26;4.93;;;2.50;;
75696;SDS011;64312;44.738;20.612;2022-10-23T15:10:52;3.10;;;2.60;;
75696;SDS011;64312;44.738;20.612;2022-10-23T15:13:17;4.53;;;3.00;;
75696;SDS011;64312;44.738;20.612;2022-10-23T15:15:43;4.85;;;2.42;;
75696;SDS011;64312;44.738;20.612;2022-10-23T15:18:09;2.78;;;2.15;;
75696;SDS011;64312;44.738;20.612;2022-10-23T15:20:35;1.95;;;1.70;;
75696;SDS011;64312;44.738;20.612;2022-10-23T15:23:00;2.35;;;1.77;;
75696;SDS011;64312;44.738;20.612;2022-10-23T15:25:27;3.78;;;2.33;;
75696;SDS011;64312;44.738;20.612;2022-10-23T15:27:53;3.35;;;1.80;;
75696;SDS011;64312;44.738;20.612;2022-10-23T15:30:18;3.13;;;1.58;;
75696;SDS011;64312;44.738;20.612;2022-10-23T15:32:44;2.33;;;1.27;;
75696;SDS011;64312;44.738;20.612;2022-10-23T15:35:10;1.20;;;1.10;;
75696;SDS011;64312;44.738;20.612;2022-10-23T15:37:35;2.42;;;1.23;;
75696;SDS011;64312;44.738;20.612;2022-10-23T15:40:01;2.03;;;1.30;;
75696;SDS011;64312;44.738;20.612;2022-10-23T15:42:27;2.58;;;1.65;;
75696;SDS011;64312;44.738;20.612;2022-10-23T15:44:52;3.13;;;2.00;;
75696;SDS011;64312;44.738;20.612;2022-10-23T15:47:18;2.58;;;1.90;;
75696;SDS011;64312;44.738;20.612;2022-10-23T15:49:43;2.95;;;1.88;;
75696;SDS011;64312;44.738;20.612;2022-10-23T15:52:09;2.95;;;1.88;;
75696;SDS011;64312;44.738;20.612;2022-10-23T15:54:35;2.17;;;1.70;;
75696;SDS011;64312;44.738;20.612;2022-10-23T15:57:01;2.50;;;1.63;;
75696;SDS011;64312;44.738;20.612;2022-10-23T15:59:28;2.75;;;1.98;;
75696;SDS011;64312;44.738;20.612;2022-10-23T16:01:56;2.47;;;1.80;;
75696;SDS011;64312;44.738;20.612;2022-10-23T16:04:22;2.78;;;2.03;;
75696;SDS011;64312;44.738;20.612;2022-10-23T16:06:47;3.05;;;1.85;;
75696;SDS011;64312;44.738;20.612;2022-10-23T16:09:14;3.17;;;2.10;;
75696;SDS011;64312;44.738;20.612;2022-10-23T16:11:40;2.88;;;2.13;;
75696;SDS011;64312;44.738;20.612;2022-10-23T16:14:07;3.70;;;2.28;;
75696;SDS011;64312;44.738;20.612;2022-10-23T16:16:35;4.22;;;2.13;;
75696;SDS011;64312;44.738;20.612;2022-10-23T16:19:02;3.00;;;1.80;;
75696;SDS011;64312;44.738;20.612;2022-10-23T16:21:29;3.22;;;1.77;;
75696;SDS011;64312;44.738;20.612;2022-10-23T16:23:57;3.58;;;2.20;;
75696;SDS011;64312;44.738;20.612;2022-10-23T16:26:24;4.35;;;2.85;;
75696;SDS011;64312;44.738;20.612;2022-10-23T16:28:54;4.75;;;2.72;;
75696;SDS011;64312;44.738;20.612;2022-10-23T16:31:21;6.65;;;3.15;;
75696;SDS011;64312;44.738;20.612;2022-10-23T16:33:48;5.60;;;3.20;;
75696;SDS011;64312;44.738;20.612;2022-10-23T16:36:14;6.72;;;2.78;;
75696;SDS011;64312;44.738;20.612;2022-10-23T16:39:00;4.25;;;2.10;;
75696;SDS011;64312;44.738;20.612;2022-10-23T16:41:46;4.38;;;2.30;;
75696;SDS011;64312;44.738;20.612;2022-10-23T16:44:16;4.55;;;2.28;;
75696;SDS011;64312;44.738;20.612;2022-10-23T16:46:54;4.35;;;2.90;;
75696;SDS011;64312;44.738;20.612;2022-10-23T16:49:20;3.33;;;2.70;;
75696;SDS011;64312;44.738;20.612;2022-10-23T16:51:45;4.30;;;2.90;;
75696;SDS011;64312;44.738;20.612;2022-10-23T16:54:11;3.78;;;2.72;;
75696;SDS011;64312;44.738;20.612;2022-10-23T16:56:39;4.35;;;2.65;;
75696;SDS011;64312;44.738;20.612;2022-10-23T16:59:05;4.72;;;2.40;;
75696;SDS011;64312;44.738;20.612;2022-10-23T17:01:30;5.18;;;3.08;;
75696;SDS011;64312;44.738;20.612;2022-10-23T17:03:57;8.02;;;4.55;;
75696;SDS011;64312;44.738;20.612;2022-10-23T17:06:27;8.68;;;5.15;;
75696;SDS011;64312;44.738;20.612;2022-10-23T17:08:55;6.38;;;3.75;;
75696;SDS011;64312;44.738;20.612;2022-10-23T17:11:23;6.63;;;3.50;;
75696;SDS011;64312;44.738;20.612;2022-10-23T17:13:54;7.82;;;4.97;;
75696;SDS011;64312;44.738;20.612;2022-10-23T17:16:26;11.40;;;6.10;;
75696;SDS011;64312;44.738;20.612;2022-10-23T17:18:54;10.10;;;5.90;;
75696;SDS011;64312;44.738;20.612;2022-10-23T17:21:21;7.05;;;4.70;;
75696;SDS011;64312;44.738;20.612;2022-10-23T17:23:47;8.60;;;4.70;;
75696;SDS011;64312;44.738;20.612;2022-10-23T17:26:15;6.03;;;3.72;;
75696;SDS011;64312;44.738;20.612;2022-10-23T17:28:43;7.07;;;4.13;;
75696;SDS011;64312;44.738;20.612;2022-10-23T17:31:16;5.47;;;3.10;;
75696;SDS011;64312;44.738;20.612;2022-10-23T17:33:47;4.18;;;2.60;;